sensor_id;sensor_type;location;lat;lon;timestamp;P1;durP1;ratioP1;P2;durP2;ratioP2
4694;SDS011;2361;49.540;8.390;2024-02-26T00:02:11;3.10;;;2.80;;
4694;SDS011;2361;49.540;8.390;2024-02-26T00:04:33;2.70;;;2.50;;
4694;SDS011;2361;49.540;8.390;2024-02-26T00:06:55;3.20;;;2.90;;
4694;SDS011;2361;49.540;8.390;2024-02-26T00:09:17;2.70;;;2.50;;
4694;SDS011;2361;49.540;8.390;2024-02-26T00:11:39;3.60;;;2.30;;
4694;SDS011;2361;49.540;8.390;2024-02-26T00:14:02;2.47;;;2.28;;
4694;SDS011;2361;49.540;8.390;2024-02-26T00:16:24;2.90;;;2.70;;
4694;SDS011;2361;49.540;8.390;2024-02-26T00:18:46;3.90;;;2.88;;
4694;SDS011;2361;49.540;8.390;2024-02-26T00:21:11;2.70;;;2.50;;
4694;SDS011;2361;49.540;8.390;2024-02-26T00:23:33;2.90;;;2.60;;
4694;SDS011;2361;49.540;8.390;2024-02-26T00:25:55;3.13;;;2.60;;
4694;SDS011;2361;49.540;8.390;2024-02-26T00:28:17;3.00;;;2.70;;
4694;SDS011;2361;49.540;8.390;2024-02-26T00:30:41;3.25;;;2.50;;
4694;SDS011;2361;49.540;8.390;2024-02-26T00:33:03;2.90;;;2.70;;
4694;SDS011;2361;49.540;8.390;2024-02-26T00:35:25;3.00;;;2.70;;
4694;SDS011;2361;49.540;8.390;2024-02-26T00:37:47;3.08;;;2.50;;
4694;SDS011;2361;49.540;8.390;2024-02-26T00:40:09;3.22;;;2.92;;
4694;SDS011;2361;49.540;8.390;2024-02-26T00:42:31;3.00;;;2.80;;
4694;SDS011;2361;49.540;8.390;2024-02-26T00:44:53;3.20;;;2.92;;
4694;SDS011;2361;49.540;8.390;2024-02-26T00:47:15;3.10;;;2.80;;
4694;SDS011;2361;49.540;8.390;2024-02-26T00:49:37;3.08;;;2.78;;
4694;SDS011;2361;49.540;8.390;2024-02-26T00:52:00;4.45;;;2.95;;
4694;SDS011;2361;49.540;8.390;2024-02-26T00:54:22;3.40;;;3.10;;
4694;SDS011;2361;49.540;8.390;2024-02-26T00:56:44;5.70;;;3.10;;
4694;SDS011;2361;49.540;8.390;2024-02-26T00:59:06;2.90;;;2.70;;
4694;SDS011;2361;49.540;8.390;2024-02-26T01:01:28;4.10;;;3.20;;
4694;SDS011;2361;49.540;8.390;2024-02-26T01:03:50;3.38;;;3.08;;
4694;SDS011;2361;49.540;8.390;2024-02-26T01:06:12;3.38;;;3.03;;
4694;SDS011;2361;49.540;8.390;2024-02-26T01:08:35;3.60;;;3.00;;
4694;SDS011;2361;49.540;8.390;2024-02-26T01:10:58;4.85;;;3.22;;
4694;SDS011;2361;49.540;8.390;2024-02-26T01:13:20;5.07;;;2.80;;
4694;SDS011;2361;49.540;8.390;2024-02-26T01:15:43;3.00;;;2.80;;
4694;SDS011;2361;49.540;8.390;2024-02-26T01:18:05;3.05;;;2.85;;
4694;SDS011;2361;49.540;8.390;2024-02-26T01:20:27;3.95;;;3.00;;
4694;SDS011;2361;49.540;8.390;2024-02-26T01:22:49;7.00;;;2.83;;
4694;SDS011;2361;49.540;8.390;2024-02-26T01:25:11;3.28;;;2.95;;
4694;SDS011;2361;49.540;8.390;2024-02-26T01:27:34;3.90;;;3.05;;
4694;SDS011;2361;49.540;8.390;2024-02-26T01:29:59;4.88;;;3.20;;
4694;SDS011;2361;49.540;8.390;2024-02-26T01:32:21;3.08;;;2.88;;
4694;SDS011;2361;49.540;8.390;2024-02-26T01:34:43;2.60;;;2.40;;
4694;SDS011;2361;49.540;8.390;2024-02-26T01:37:05;2.58;;;2.38;;
4694;SDS011;2361;49.540;8.390;2024-02-26T01:39:27;2.58;;;2.38;;
4694;SDS011;2361;49.540;8.390;2024-02-26T01:41:51;2.10;;;2.00;;
4694;SDS011;2361;49.540;8.390;2024-02-26T01:44:13;2.40;;;2.20;;
4694;SDS011;2361;49.540;8.390;2024-02-26T01:46:35;2.30;;;2.00;;
4694;SDS011;2361;49.540;8.390;2024-02-26T01:48:58;2.40;;;2.20;;
4694;SDS011;2361;49.540;8.390;2024-02-26T01:51:20;2.10;;;2.00;;
4694;SDS011;2361;49.540;8.390;2024-02-26T01:53:42;2.00;;;1.70;;
4694;SDS011;2361;49.540;8.390;2024-02-26T01:56:04;2.08;;;1.98;;
4694;SDS011;2361;49.540;8.390;2024-02-26T01:58:26;1.95;;;1.85;;
4694;SDS011;2361;49.540;8.390;2024-02-26T02:00:49;2.00;;;1.80;;
4694;SDS011;2361;49.540;8.390;2024-02-26T02:03:11;1.70;;;1.60;;
4694;SDS011;2361;49.540;8.390;2024-02-26T02:05:33;2.20;;;1.77;;
4694;SDS011;2361;49.540;8.390;2024-02-26T02:08:02;2.00;;;1.80;;
4694;SDS011;2361;49.540;8.390;2024-02-26T02:10:26;1.30;;;1.30;;
4694;SDS011;2361;49.540;8.390;2024-02-26T02:12:49;1.70;;;1.60;;
4694;SDS011;2361;49.540;8.390;2024-02-26T02:15:11;1.70;;;1.60;;
4694;SDS011;2361;49.540;8.390;2024-02-26T02:17:33;1.40;;;1.30;;
4694;SDS011;2361;49.540;8.390;2024-02-26T02:19:55;1.30;;;1.30;;
4694;SDS011;2361;49.540;8.390;2024-02-26T02:22:18;1.80;;;1.70;;
4694;SDS011;2361;49.540;8.390;2024-02-26T02:24:40;1.50;;;1.50;;
4694;SDS011;2361;49.540;8.390;2024-02-26T02:27:02;1.50;;;1.50;;
4694;SDS011;2361;49.540;8.390;2024-02-26T02:29:24;1.63;;;1.40;;
4694;SDS011;2361;49.540;8.390;2024-02-26T02:31:48;2.60;;;1.48;;
4694;SDS011;2361;49.540;8.390;2024-02-26T02:34:10;1.80;;;1.70;;
4694;SDS011;2361;49.540;8.390;2024-02-26T02:36:33;1.58;;;1.42;;
4694;SDS011;2361;49.540;8.390;2024-02-26T02:38:56;1.80;;;1.70;;
4694;SDS011;2361;49.540;8.390;2024-02-26T02:41:18;1.50;;;1.40;;
4694;SDS011;2361;49.540;8.390;2024-02-26T02:43:40;1.50;;;1.40;;
4694;SDS011;2361;49.540;8.390;2024-02-26T02:46:02;1.33;;;1.33;;
4694;SDS011;2361;49.540;8.390;2024-02-26T02:48:24;1.50;;;1.50;;
4694;SDS011;2361;49.540;8.390;2024-02-26T02:50:47;1.30;;;1.30;;
4694;SDS011;2361;49.540;8.390;2024-02-26T02:53:09;1.70;;;1.30;;
4694;SDS011;2361;49.540;8.390;2024-02-26T02:55:31;1.60;;;1.40;;
4694;SDS011;2361;49.540;8.390;2024-02-26T02:57:53;1.30;;;1.30;;
4694;SDS011;2361;49.540;8.390;2024-02-26T03:00:15;1.50;;;1.40;;
4694;SDS011;2361;49.540;8.390;2024-02-26T03:02:38;1.30;;;1.20;;
4694;SDS011;2361;49.540;8.390;2024-02-26T03:05:00;1.30;;;1.20;;
4694;SDS011;2361;49.540;8.390;2024-02-26T03:07:22;1.40;;;1.40;;
4694;SDS011;2361;49.540;8.390;2024-02-26T03:09:44;1.10;;;1.10;;
4694;SDS011;2361;49.540;8.390;2024-02-26T03:12:06;1.10;;;1.00;;
4694;SDS011;2361;49.540;8.390;2024-02-26T03:14:28;1.10;;;1.10;;
4694;SDS011;2361;49.540;8.390;2024-02-26T03:16:52;1.50;;;1.30;;
4694;SDS011;2361;49.540;8.390;2024-02-26T03:19:16;1.10;;;1.00;;
4694;SDS011;2361;49.540;8.390;2024-02-26T03:21:38;1.50;;;1.40;;
4694;SDS011;2361;49.540;8.390;2024-02-26T03:24:00;1.60;;;1.13;;
4694;SDS011;2361;49.540;8.390;2024-02-26T03:26:22;0.90;;;0.90;;
4694;SDS011;2361;49.540;8.390;2024-02-26T03:28:44;1.10;;;1.10;;
4694;SDS011;2361;49.540;8.390;2024-02-26T03:31:06;1.00;;;1.00;;
4694;SDS011;2361;49.540;8.390;2024-02-26T03:33:28;0.82;;;0.82;;
4694;SDS011;2361;49.540;8.390;2024-02-26T03:35:50;1.65;;;0.90;;
4694;SDS011;2361;49.540;8.390;2024-02-26T03:38:13;1.30;;;0.90;;
4694;SDS011;2361;49.540;8.390;2024-02-26T03:40:35;0.93;;;0.93;;
4694;SDS011;2361;49.540;8.390;2024-02-26T03:42:57;0.80;;;0.80;;
4694;SDS011;2361;49.540;8.390;2024-02-26T03:45:19;0.90;;;0.90;;
4694;SDS011;2361;49.540;8.390;2024-02-26T03:47:41;1.20;;;1.00;;
4694;SDS011;2361;49.540;8.390;2024-02-26T03:50:03;1.10;;;1.00;;
4694;SDS011;2361;49.540;8.390;2024-02-26T03:52:26;0.90;;;0.90;;
4694;SDS011;2361;49.540;8.390;2024-02-26T03:54:48;0.88;;;0.88;;
4694;SDS011;2361;49.540;8.390;2024-02-26T03:57:10;0.90;;;0.90;;
4694;SDS011;2361;49.540;8.390;2024-02-26T03:59:32;0.90;;;0.90;;
4694;SDS011;2361;49.540;8.390;2024-02-26T04:01:54;1.30;;;0.90;;
4694;SDS011;2361;49.540;8.390;2024-02-26T04:04:16;0.70;;;0.70;;
4694;SDS011;2361;49.540;8.390;2024-02-26T04:06:38;0.70;;;0.70;;
4694;SDS011;2361;49.540;8.390;2024-02-26T04:09:00;2.30;;;0.80;;
4694;SDS011;2361;49.540;8.390;2024-02-26T04:11:25;0.90;;;0.90;;
4694;SDS011;2361;49.540;8.390;2024-02-26T04:13:46;0.80;;;0.80;;
4694;SDS011;2361;49.540;8.390;2024-02-26T04:16:10;1.90;;;0.70;;
4694;SDS011;2361;49.540;8.390;2024-02-26T04:18:32;0.80;;;0.80;;
4694;SDS011;2361;49.540;8.390;2024-02-26T04:20:55;0.80;;;0.80;;
4694;SDS011;2361;49.540;8.390;2024-02-26T04:23:18;0.70;;;0.70;;
4694;SDS011;2361;49.540;8.390;2024-02-26T04:25:40;1.20;;;0.90;;
4694;SDS011;2361;49.540;8.390;2024-02-26T04:28:02;0.90;;;0.90;;
4694;SDS011;2361;49.540;8.390;2024-02-26T04:30:24;0.80;;;0.80;;
4694;SDS011;2361;49.540;8.390;2024-02-26T04:32:46;1.10;;;1.00;;
4694;SDS011;2361;49.540;8.390;2024-02-26T04:35:08;1.40;;;1.30;;
4694;SDS011;2361;49.540;8.390;2024-02-26T04:37:31;1.10;;;1.10;;
4694;SDS011;2361;49.540;8.390;2024-02-26T04:39:53;0.90;;;0.90;;
4694;SDS011;2361;49.540;8.390;2024-02-26T04:42:15;1.10;;;1.10;;
4694;SDS011;2361;49.540;8.390;2024-02-26T04:44:37;1.20;;;1.20;;
4694;SDS011;2361;49.540;8.390;2024-02-26T04:46:58;1.50;;;1.40;;
4694;SDS011;2361;49.540;8.390;2024-02-26T04:49:22;1.20;;;1.20;;
4694;SDS011;2361;49.540;8.390;2024-02-26T04:51:45;1.60;;;1.50;;
4694;SDS011;2361;49.540;8.390;2024-02-26T04:54:09;1.60;;;1.50;;
4694;SDS011;2361;49.540;8.390;2024-02-26T04:56:31;1.60;;;1.50;;
4694;SDS011;2361;49.540;8.390;2024-02-26T04:58:53;1.70;;;1.60;;
4694;SDS011;2361;49.540;8.390;2024-02-26T05:01:15;1.35;;;1.30;;
4694;SDS011;2361;49.540;8.390;2024-02-26T05:03:38;1.40;;;1.40;;
4694;SDS011;2361;49.540;8.390;2024-02-26T05:06:00;1.83;;;1.73;;
4694;SDS011;2361;49.540;8.390;2024-02-26T05:08:22;1.67;;;1.58;;
4694;SDS011;2361;49.540;8.390;2024-02-26T05:10:47;1.65;;;1.55;;
4694;SDS011;2361;49.540;8.390;2024-02-26T05:13:09;2.30;;;1.80;;
4694;SDS011;2361;49.540;8.390;2024-02-26T05:15:31;1.52;;;1.42;;
4694;SDS011;2361;49.540;8.390;2024-02-26T05:17:53;1.60;;;1.30;;
4694;SDS011;2361;49.540;8.390;2024-02-26T05:20:15;3.10;;;1.80;;
4694;SDS011;2361;49.540;8.390;2024-02-26T05:22:37;1.60;;;1.50;;
4694;SDS011;2361;49.540;8.390;2024-02-26T05:24:59;2.40;;;1.73;;
4694;SDS011;2361;49.540;8.390;2024-02-26T05:27:21;2.50;;;1.80;;
4694;SDS011;2361;49.540;8.390;2024-02-26T05:29:43;3.88;;;2.00;;
4694;SDS011;2361;49.540;8.390;2024-02-26T05:32:05;4.60;;;2.15;;
4694;SDS011;2361;49.540;8.390;2024-02-26T05:34:27;3.10;;;2.80;;
4694;SDS011;2361;49.540;8.390;2024-02-26T05:36:51;2.78;;;2.20;;
4694;SDS011;2361;49.540;8.390;2024-02-26T05:39:13;1.90;;;1.80;;
4694;SDS011;2361;49.540;8.390;2024-02-26T05:41:37;2.40;;;2.20;;
4694;SDS011;2361;49.540;8.390;2024-02-26T05:43:59;2.40;;;1.80;;
4694;SDS011;2361;49.540;8.390;2024-02-26T05:46:21;2.20;;;2.00;;
4694;SDS011;2361;49.540;8.390;2024-02-26T05:48:44;1.80;;;1.70;;
4694;SDS011;2361;49.540;8.390;2024-02-26T05:51:09;2.80;;;1.90;;
4694;SDS011;2361;49.540;8.390;2024-02-26T05:53:31;1.80;;;1.70;;
4694;SDS011;2361;49.540;8.390;2024-02-26T05:55:53;2.33;;;2.00;;
4694;SDS011;2361;49.540;8.390;2024-02-26T05:58:15;2.20;;;2.00;;
4694;SDS011;2361;49.540;8.390;2024-02-26T06:00:37;2.05;;;1.95;;
4694;SDS011;2361;49.540;8.390;2024-02-26T06:02:59;1.90;;;1.80;;
4694;SDS011;2361;49.540;8.390;2024-02-26T06:05:21;2.40;;;1.90;;
4694;SDS011;2361;49.540;8.390;2024-02-26T06:07:43;2.00;;;1.83;;
4694;SDS011;2361;49.540;8.390;2024-02-26T06:10:05;2.25;;;2.00;;
4694;SDS011;2361;49.540;8.390;2024-02-26T06:12:27;1.92;;;1.83;;
4694;SDS011;2361;49.540;8.390;2024-02-26T06:14:51;2.38;;;1.90;;
4694;SDS011;2361;49.540;8.390;2024-02-26T06:17:14;3.60;;;2.00;;
4694;SDS011;2361;49.540;8.390;2024-02-26T06:19:36;2.17;;;2.08;;
4694;SDS011;2361;49.540;8.390;2024-02-26T06:21:58;2.20;;;2.00;;
4694;SDS011;2361;49.540;8.390;2024-02-26T06:24:20;2.45;;;2.25;;
4694;SDS011;2361;49.540;8.390;2024-02-26T06:26:43;2.30;;;2.20;;
4694;SDS011;2361;49.540;8.390;2024-02-26T06:29:05;3.40;;;2.47;;
4694;SDS011;2361;49.540;8.390;2024-02-26T06:31:27;2.53;;;2.33;;
4694;SDS011;2361;49.540;8.390;2024-02-26T06:33:50;2.42;;;2.30;;
4694;SDS011;2361;49.540;8.390;2024-02-26T06:36:12;2.50;;;2.20;;
4694;SDS011;2361;49.540;8.390;2024-02-26T06:38:34;2.40;;;2.20;;
4694;SDS011;2361;49.540;8.390;2024-02-26T06:40:56;2.25;;;2.05;;
4694;SDS011;2361;49.540;8.390;2024-02-26T06:43:18;2.00;;;1.90;;
4694;SDS011;2361;49.540;8.390;2024-02-26T06:45:40;2.20;;;2.00;;
4694;SDS011;2361;49.540;8.390;2024-02-26T06:48:03;2.20;;;2.00;;
4694;SDS011;2361;49.540;8.390;2024-02-26T06:50:25;2.00;;;1.90;;
4694;SDS011;2361;49.540;8.390;2024-02-26T06:52:47;2.08;;;1.88;;
4694;SDS011;2361;49.540;8.390;2024-02-26T06:55:09;1.90;;;1.80;;
4694;SDS011;2361;49.540;8.390;2024-02-26T06:57:31;1.90;;;1.80;;
4694;SDS011;2361;49.540;8.390;2024-02-26T06:59:53;1.92;;;1.80;;
4694;SDS011;2361;49.540;8.390;2024-02-26T07:02:15;2.17;;;2.00;;
4694;SDS011;2361;49.540;8.390;2024-02-26T07:04:37;2.00;;;1.90;;
4694;SDS011;2361;49.540;8.390;2024-02-26T07:07:00;2.00;;;1.90;;
4694;SDS011;2361;49.540;8.390;2024-02-26T07:09:22;1.90;;;1.80;;
4694;SDS011;2361;49.540;8.390;2024-02-26T07:11:44;2.10;;;1.90;;
4694;SDS011;2361;49.540;8.390;2024-02-26T07:14:06;2.40;;;2.20;;
4694;SDS011;2361;49.540;8.390;2024-02-26T07:16:28;1.95;;;1.85;;
4694;SDS011;2361;49.540;8.390;2024-02-26T07:18:50;1.90;;;1.80;;
4694;SDS011;2361;49.540;8.390;2024-02-26T07:21:12;2.60;;;1.80;;
4694;SDS011;2361;49.540;8.390;2024-02-26T07:23:34;1.70;;;1.60;;
4694;SDS011;2361;49.540;8.390;2024-02-26T07:25:56;2.05;;;1.90;;
4694;SDS011;2361;49.540;8.390;2024-02-26T07:28:18;2.00;;;1.90;;
4694;SDS011;2361;49.540;8.390;2024-02-26T07:30:40;1.80;;;1.70;;
4694;SDS011;2361;49.540;8.390;2024-02-26T07:33:02;1.70;;;1.60;;
4694;SDS011;2361;49.540;8.390;2024-02-26T07:35:26;1.95;;;1.40;;
4694;SDS011;2361;49.540;8.390;2024-02-26T07:37:49;1.30;;;1.30;;
4694;SDS011;2361;49.540;8.390;2024-02-26T07:40:11;1.20;;;1.20;;
4694;SDS011;2361;49.540;8.390;2024-02-26T07:42:33;1.38;;;1.38;;
4694;SDS011;2361;49.540;8.390;2024-02-26T07:44:55;1.40;;;1.30;;
4694;SDS011;2361;49.540;8.390;2024-02-26T07:47:18;1.40;;;1.30;;
4694;SDS011;2361;49.540;8.390;2024-02-26T07:49:40;1.20;;;1.10;;
4694;SDS011;2361;49.540;8.390;2024-02-26T07:52:03;1.50;;;1.25;;
4694;SDS011;2361;49.540;8.390;2024-02-26T07:54:25;1.30;;;1.30;;
4694;SDS011;2361;49.540;8.390;2024-02-26T07:56:47;1.15;;;1.10;;
4694;SDS011;2361;49.540;8.390;2024-02-26T07:59:09;1.23;;;1.23;;
4694;SDS011;2361;49.540;8.390;2024-02-26T08:01:31;1.10;;;1.00;;
4694;SDS011;2361;49.540;8.390;2024-02-26T08:03:53;1.00;;;1.00;;
4694;SDS011;2361;49.540;8.390;2024-02-26T08:06:16;1.00;;;1.00;;
4694;SDS011;2361;49.540;8.390;2024-02-26T08:08:38;1.00;;;0.90;;
4694;SDS011;2361;49.540;8.390;2024-02-26T08:11:00;1.00;;;1.00;;
4694;SDS011;2361;49.540;8.390;2024-02-26T08:13:22;1.50;;;1.40;;
4694;SDS011;2361;49.540;8.390;2024-02-26T08:15:44;2.20;;;1.40;;
4694;SDS011;2361;49.540;8.390;2024-02-26T08:18:06;1.40;;;1.30;;
4694;SDS011;2361;49.540;8.390;2024-02-26T08:20:28;1.40;;;1.40;;
4694;SDS011;2361;49.540;8.390;2024-02-26T08:22:50;2.40;;;1.30;;
4694;SDS011;2361;49.540;8.390;2024-02-26T08:25:12;1.60;;;1.50;;
4694;SDS011;2361;49.540;8.390;2024-02-26T08:27:35;2.40;;;1.40;;
4694;SDS011;2361;49.540;8.390;2024-02-26T08:29:57;1.50;;;1.40;;
4694;SDS011;2361;49.540;8.390;2024-02-26T08:32:19;1.50;;;1.42;;
4694;SDS011;2361;49.540;8.390;2024-02-26T08:34:41;1.80;;;1.70;;
4694;SDS011;2361;49.540;8.390;2024-02-26T08:37:03;1.60;;;1.50;;
4694;SDS011;2361;49.540;8.390;2024-02-26T08:39:27;2.13;;;1.60;;
4694;SDS011;2361;49.540;8.390;2024-02-26T08:41:49;2.50;;;1.40;;
4694;SDS011;2361;49.540;8.390;2024-02-26T08:44:12;3.05;;;2.85;;
4694;SDS011;2361;49.540;8.390;2024-02-26T08:46:33;2.50;;;2.10;;
4694;SDS011;2361;49.540;8.390;2024-02-26T08:48:55;1.60;;;1.50;;
4694;SDS011;2361;49.540;8.390;2024-02-26T08:51:18;2.83;;;1.55;;
4694;SDS011;2361;49.540;8.390;2024-02-26T08:53:40;1.67;;;1.58;;
4694;SDS011;2361;49.540;8.390;2024-02-26T08:56:03;1.60;;;1.50;;
4694;SDS011;2361;49.540;8.390;2024-02-26T08:58:27;1.20;;;1.20;;
4694;SDS011;2361;49.540;8.390;2024-02-26T09:00:49;1.70;;;1.60;;
4694;SDS011;2361;49.540;8.390;2024-02-26T09:03:12;1.90;;;1.80;;
4694;SDS011;2361;49.540;8.390;2024-02-26T09:05:34;1.93;;;1.80;;
4694;SDS011;2361;49.540;8.390;2024-02-26T09:07:56;1.80;;;1.70;;
4694;SDS011;2361;49.540;8.390;2024-02-26T09:10:18;1.52;;;1.42;;
4694;SDS011;2361;49.540;8.390;2024-02-26T09:12:40;1.40;;;1.40;;
4694;SDS011;2361;49.540;8.390;2024-02-26T09:15:02;1.60;;;1.50;;
4694;SDS011;2361;49.540;8.390;2024-02-26T09:17:24;1.42;;;1.33;;
4694;SDS011;2361;49.540;8.390;2024-02-26T09:19:46;1.60;;;1.50;;
4694;SDS011;2361;49.540;8.390;2024-02-26T09:22:08;1.60;;;1.50;;
4694;SDS011;2361;49.540;8.390;2024-02-26T09:24:30;1.40;;;1.40;;
4694;SDS011;2361;49.540;8.390;2024-02-26T09:26:52;1.73;;;1.63;;
4694;SDS011;2361;49.540;8.390;2024-02-26T09:29:14;1.70;;;1.60;;
4694;SDS011;2361;49.540;8.390;2024-02-26T09:31:36;2.67;;;1.85;;
4694;SDS011;2361;49.540;8.390;2024-02-26T09:34:01;2.10;;;1.90;;
4694;SDS011;2361;49.540;8.390;2024-02-26T09:36:23;3.00;;;1.90;;
4694;SDS011;2361;49.540;8.390;2024-02-26T09:38:45;1.90;;;1.80;;
4694;SDS011;2361;49.540;8.390;2024-02-26T09:41:16;2.50;;;2.40;;
4694;SDS011;2361;49.540;8.390;2024-02-26T09:43:38;2.47;;;2.33;;
4694;SDS011;2361;49.540;8.390;2024-02-26T09:46:09;2.35;;;2.20;;
4694;SDS011;2361;49.540;8.390;2024-02-26T09:48:31;2.00;;;1.90;;
4694;SDS011;2361;49.540;8.390;2024-02-26T09:50:55;2.40;;;2.20;;
4694;SDS011;2361;49.540;8.390;2024-02-26T09:53:17;2.30;;;2.10;;
4694;SDS011;2361;49.540;8.390;2024-02-26T09:55:41;2.30;;;2.20;;
4694;SDS011;2361;49.540;8.390;2024-02-26T09:58:04;2.50;;;2.30;;
4694;SDS011;2361;49.540;8.390;2024-02-26T10:00:28;2.30;;;2.10;;
4694;SDS011;2361;49.540;8.390;2024-02-26T10:02:55;2.38;;;2.20;;
4694;SDS011;2361;49.540;8.390;2024-02-26T10:05:19;3.33;;;2.50;;
4694;SDS011;2361;49.540;8.390;2024-02-26T10:07:42;3.35;;;2.60;;
4694;SDS011;2361;49.540;8.390;2024-02-26T10:10:06;4.40;;;2.60;;
4694;SDS011;2361;49.540;8.390;2024-02-26T10:12:30;2.65;;;2.40;;
4694;SDS011;2361;49.540;8.390;2024-02-26T10:14:53;2.40;;;2.30;;
4694;SDS011;2361;49.540;8.390;2024-02-26T10:17:15;2.60;;;2.40;;
4694;SDS011;2361;49.540;8.390;2024-02-26T10:19:37;2.40;;;2.20;;
4694;SDS011;2361;49.540;8.390;2024-02-26T10:22:00;2.70;;;2.50;;
4694;SDS011;2361;49.540;8.390;2024-02-26T10:24:24;2.22;;;2.13;;
4694;SDS011;2361;49.540;8.390;2024-02-26T10:26:50;2.40;;;2.20;;
4694;SDS011;2361;49.540;8.390;2024-02-26T10:29:13;2.85;;;2.65;;
4694;SDS011;2361;49.540;8.390;2024-02-26T10:31:35;2.13;;;2.00;;
4694;SDS011;2361;49.540;8.390;2024-02-26T10:33:57;2.10;;;2.00;;
4694;SDS011;2361;49.540;8.390;2024-02-26T10:36:22;2.20;;;2.10;;
4694;SDS011;2361;49.540;8.390;2024-02-26T10:38:48;2.10;;;2.00;;
4694;SDS011;2361;49.540;8.390;2024-02-26T10:41:12;2.30;;;2.10;;
4694;SDS011;2361;49.540;8.390;2024-02-26T10:43:36;2.10;;;2.00;;
4694;SDS011;2361;49.540;8.390;2024-02-26T10:45:58;2.40;;;2.20;;
4694;SDS011;2361;49.540;8.390;2024-02-26T10:48:20;2.60;;;2.40;;
4694;SDS011;2361;49.540;8.390;2024-02-26T10:50:42;2.30;;;2.20;;
4694;SDS011;2361;49.540;8.390;2024-02-26T10:53:05;2.58;;;2.38;;
4694;SDS011;2361;49.540;8.390;2024-02-26T10:55:39;4.18;;;2.30;;
4694;SDS011;2361;49.540;8.390;2024-02-26T10:58:01;2.90;;;2.20;;
4694;SDS011;2361;49.540;8.390;2024-02-26T11:00:24;5.75;;;2.20;;
4694;SDS011;2361;49.540;8.390;2024-02-26T11:02:48;2.75;;;2.25;;
4694;SDS011;2361;49.540;8.390;2024-02-26T11:05:11;3.97;;;2.30;;
4694;SDS011;2361;49.540;8.390;2024-02-26T11:07:34;2.80;;;2.20;;
4694;SDS011;2361;49.540;8.390;2024-02-26T11:09:59;2.35;;;2.25;;
4694;SDS011;2361;49.540;8.390;2024-02-26T11:12:21;2.50;;;2.30;;
4694;SDS011;2361;49.540;8.390;2024-02-26T11:14:46;2.00;;;1.90;;
4694;SDS011;2361;49.540;8.390;2024-02-26T11:17:08;2.20;;;2.00;;
4694;SDS011;2361;49.540;8.390;2024-02-26T11:19:32;2.60;;;2.10;;
4694;SDS011;2361;49.540;8.390;2024-02-26T11:21:58;2.03;;;1.92;;
4694;SDS011;2361;49.540;8.390;2024-02-26T11:24:31;2.05;;;1.95;;
4694;SDS011;2361;49.540;8.390;2024-02-26T11:26:55;2.20;;;2.10;;
4694;SDS011;2361;49.540;8.390;2024-02-26T11:29:22;2.00;;;1.90;;
4694;SDS011;2361;49.540;8.390;2024-02-26T11:31:46;2.27;;;2.10;;
4694;SDS011;2361;49.540;8.390;2024-02-26T11:34:08;2.10;;;2.00;;
4694;SDS011;2361;49.540;8.390;2024-02-26T11:36:30;2.08;;;1.98;;
4694;SDS011;2361;49.540;8.390;2024-02-26T11:38:53;2.10;;;2.00;;
4694;SDS011;2361;49.540;8.390;2024-02-26T11:41:16;2.03;;;1.92;;
4694;SDS011;2361;49.540;8.390;2024-02-26T11:43:58;2.30;;;2.10;;
4694;SDS011;2361;49.540;8.390;2024-02-26T11:46:32;2.28;;;2.08;;
4694;SDS011;2361;49.540;8.390;2024-02-26T11:49:01;2.05;;;1.95;;
4694;SDS011;2361;49.540;8.390;2024-02-26T11:51:55;2.00;;;1.90;;
4694;SDS011;2361;49.540;8.390;2024-02-26T11:54:38;2.13;;;2.03;;
4694;SDS011;2361;49.540;8.390;2024-02-26T12:02:43;3.13;;;2.20;;
4694;SDS011;2361;49.540;8.390;2024-02-26T12:05:20;2.20;;;2.10;;
4694;SDS011;2361;49.540;8.390;2024-02-26T12:07:49;2.33;;;2.13;;
4694;SDS011;2361;49.540;8.390;2024-02-26T12:13:05;2.00;;;1.90;;
4694;SDS011;2361;49.540;8.390;2024-02-26T12:15:32;2.40;;;2.20;;
4694;SDS011;2361;49.540;8.390;2024-02-26T12:17:59;2.20;;;2.10;;
4694;SDS011;2361;49.540;8.390;2024-02-26T12:20:23;2.10;;;2.00;;
4694;SDS011;2361;49.540;8.390;2024-02-26T12:22:45;2.20;;;2.10;;
4694;SDS011;2361;49.540;8.390;2024-02-26T12:25:10;2.30;;;2.00;;
4694;SDS011;2361;49.540;8.390;2024-02-26T12:27:32;2.20;;;2.10;;
4694;SDS011;2361;49.540;8.390;2024-02-26T12:29:54;3.00;;;2.10;;
4694;SDS011;2361;49.540;8.390;2024-02-26T12:32:16;2.10;;;2.00;;
4694;SDS011;2361;49.540;8.390;2024-02-26T12:34:38;2.05;;;1.95;;
4694;SDS011;2361;49.540;8.390;2024-02-26T12:37:01;2.38;;;2.28;;
4694;SDS011;2361;49.540;8.390;2024-02-26T12:39:23;2.30;;;2.20;;
4694;SDS011;2361;49.540;8.390;2024-02-26T12:41:46;2.60;;;2.00;;
4694;SDS011;2361;49.540;8.390;2024-02-26T12:44:11;2.17;;;2.00;;
4694;SDS011;2361;49.540;8.390;2024-02-26T12:46:34;2.28;;;2.08;;
4694;SDS011;2361;49.540;8.390;2024-02-26T12:48:58;2.30;;;2.10;;
4694;SDS011;2361;49.540;8.390;2024-02-26T12:51:20;2.30;;;2.20;;
4694;SDS011;2361;49.540;8.390;2024-02-26T12:53:43;2.40;;;2.20;;
4694;SDS011;2361;49.540;8.390;2024-02-26T12:56:07;2.60;;;2.40;;
4694;SDS011;2361;49.540;8.390;2024-02-26T12:58:30;1.80;;;1.70;;
4694;SDS011;2361;49.540;8.390;2024-02-26T13:00:53;2.13;;;2.03;;
4694;SDS011;2361;49.540;8.390;2024-02-26T13:03:16;2.17;;;2.08;;
4694;SDS011;2361;49.540;8.390;2024-02-26T13:05:38;2.50;;;2.30;;
4694;SDS011;2361;49.540;8.390;2024-02-26T13:08:01;2.10;;;2.00;;
4694;SDS011;2361;49.540;8.390;2024-02-26T13:10:28;4.80;;;2.40;;
4694;SDS011;2361;49.540;8.390;2024-02-26T13:12:50;2.28;;;2.17;;
4694;SDS011;2361;49.540;8.390;2024-02-26T13:15:16;2.10;;;2.00;;
4694;SDS011;2361;49.540;8.390;2024-02-26T13:17:43;2.25;;;2.13;;
4694;SDS011;2361;49.540;8.390;2024-02-26T13:20:07;2.50;;;2.30;;
4694;SDS011;2361;49.540;8.390;2024-02-26T13:22:34;2.20;;;2.00;;
4694;SDS011;2361;49.540;8.390;2024-02-26T13:24:56;1.95;;;1.85;;
4694;SDS011;2361;49.540;8.390;2024-02-26T13:27:23;1.83;;;1.73;;
4694;SDS011;2361;49.540;8.390;2024-02-26T13:29:47;1.70;;;1.60;;
4694;SDS011;2361;49.540;8.390;2024-02-26T13:32:10;1.60;;;1.50;;
4694;SDS011;2361;49.540;8.390;2024-02-26T13:34:33;1.80;;;1.70;;
4694;SDS011;2361;49.540;8.390;2024-02-26T13:36:56;1.70;;;1.60;;
4694;SDS011;2361;49.540;8.390;2024-02-26T13:39:22;2.10;;;1.90;;
4694;SDS011;2361;49.540;8.390;2024-02-26T13:41:46;1.70;;;1.60;;
4694;SDS011;2361;49.540;8.390;2024-02-26T13:44:08;1.98;;;1.88;;
4694;SDS011;2361;49.540;8.390;2024-02-26T13:46:30;1.90;;;1.80;;
4694;SDS011;2361;49.540;8.390;2024-02-26T13:48:52;1.70;;;1.60;;
4694;SDS011;2361;49.540;8.390;2024-02-26T13:51:16;2.28;;;2.10;;
4694;SDS011;2361;49.540;8.390;2024-02-26T13:53:39;2.08;;;1.98;;
4694;SDS011;2361;49.540;8.390;2024-02-26T13:56:01;2.25;;;1.90;;
4694;SDS011;2361;49.540;8.390;2024-02-26T13:58:27;1.70;;;1.70;;
4694;SDS011;2361;49.540;8.390;2024-02-26T14:00:49;1.90;;;1.80;;
4694;SDS011;2361;49.540;8.390;2024-02-26T14:03:11;1.80;;;1.70;;
4694;SDS011;2361;49.540;8.390;2024-02-26T14:05:33;1.55;;;1.45;;
4694;SDS011;2361;49.540;8.390;2024-02-26T14:07:55;2.10;;;2.00;;
4694;SDS011;2361;49.540;8.390;2024-02-26T14:10:18;1.85;;;1.75;;
4694;SDS011;2361;49.540;8.390;2024-02-26T14:12:40;1.65;;;1.63;;
4694;SDS011;2361;49.540;8.390;2024-02-26T14:15:02;2.00;;;1.90;;
4694;SDS011;2361;49.540;8.390;2024-02-26T14:17:26;1.88;;;1.77;;
4694;SDS011;2361;49.540;8.390;2024-02-26T14:19:48;1.80;;;1.70;;
4694;SDS011;2361;49.540;8.390;2024-02-26T14:22:11;1.90;;;1.80;;
4694;SDS011;2361;49.540;8.390;2024-02-26T14:24:33;2.00;;;1.90;;
4694;SDS011;2361;49.540;8.390;2024-02-26T14:26:56;1.63;;;1.52;;
4694;SDS011;2361;49.540;8.390;2024-02-26T14:29:18;2.00;;;1.90;;
4694;SDS011;2361;49.540;8.390;2024-02-26T14:31:40;2.20;;;2.10;;
4694;SDS011;2361;49.540;8.390;2024-02-26T14:34:04;2.45;;;2.25;;
4694;SDS011;2361;49.540;8.390;2024-02-26T14:36:26;1.60;;;1.60;;
4694;SDS011;2361;49.540;8.390;2024-02-26T14:38:48;2.00;;;1.90;;
4694;SDS011;2361;49.540;8.390;2024-02-26T14:41:10;2.22;;;2.13;;
4694;SDS011;2361;49.540;8.390;2024-02-26T14:43:32;2.30;;;2.20;;
4694;SDS011;2361;49.540;8.390;2024-02-26T14:45:57;4.43;;;1.83;;
4694;SDS011;2361;49.540;8.390;2024-02-26T14:48:19;4.00;;;2.88;;
4694;SDS011;2361;49.540;8.390;2024-02-26T14:50:41;2.80;;;2.60;;
4694;SDS011;2361;49.540;8.390;2024-02-26T14:53:03;2.50;;;2.30;;
4694;SDS011;2361;49.540;8.390;2024-02-26T14:55:25;2.58;;;2.47;;
4694;SDS011;2361;49.540;8.390;2024-02-26T14:57:47;3.08;;;2.40;;